sensor_id;sensor_type;location;lat;lon;timestamp;pressure;altitude;pressure_sealevel;temperature;humidity
68226;BME280;55045;49.410;11.030;2023-04-03T00:02:24;98878.94;;;2.87;100.00
68226;BME280;55045;49.410;11.030;2023-04-03T00:05:28;98883.13;;;2.96;100.00
68226;BME280;55045;49.410;11.030;2023-04-03T00:08:32;98875.53;;;2.81;100.00
68226;BME280;55045;49.410;11.030;2023-04-03T00:11:35;98886.59;;;2.92;100.00
68226;BME280;55045;49.410;11.030;2023-04-03T00:14:39;98868.72;;;2.80;100.00
68226;BME280;55045;49.410;11.030;2023-04-03T00:17:42;98865.31;;;2.78;100.00
68226;BME280;55045;49.410;11.030;2023-04-03T00:20:45;98860.19;;;2.78;100.00
68226;BME280;55045;49.410;11.030;2023-04-03T00:23:50;98863.69;;;2.62;100.00
68226;BME280;55045;49.410;11.030;2023-04-03T00:26:53;98862.78;;;2.70;100.00
68226;BME280;55045;49.410;11.030;2023-04-03T00:29:56;98873.13;;;2.49;100.00
68226;BME280;55045;49.410;11.030;2023-04-03T00:33:00;98874.00;;;2.48;100.00
68226;BME280;55045;49.410;11.030;2023-04-03T00:36:07;98870.56;;;2.50;100.00
68226;BME280;55045;49.410;11.030;2023-04-03T00:39:12;98869.69;;;2.54;100.00
68226;BME280;55045;49.410;11.030;2023-04-03T00:42:16;98879.88;;;2.64;100.00
68226;BME280;55045;49.410;11.030;2023-04-03T00:45:32;98873.94;;;2.62;100.00
68226;BME280;55045;49.410;11.030;2023-04-03T00:48:40;98875.63;;;2.67;100.00
68226;BME280;55045;49.410;11.030;2023-04-03T00:51:43;98873.94;;;2.62;100.00
68226;BME280;55045;49.410;11.030;2023-04-03T00:54:50;98845.88;;;2.36;100.00
68226;BME280;55045;49.410;11.030;2023-04-03T00:57:55;98878.25;;;2.43;100.00
68226;BME280;55045;49.410;11.030;2023-04-03T01:01:03;98869.72;;;2.50;100.00
68226;BME280;55045;49.410;11.030;2023-04-03T01:04:26;98878.22;;;2.53;100.00
68226;BME280;55045;49.410;11.030;2023-04-03T01:07:30;98880.78;;;2.59;100.00
68226;BME280;55045;49.410;11.030;2023-04-03T01:10:36;98875.72;;;2.47;100.00
68226;BME280;55045;49.410;11.030;2023-04-03T01:13:40;98872.31;;;2.45;100.00
68226;BME280;55045;49.410;11.030;2023-04-03T01:16:52;98871.47;;;2.37;100.00
68226;BME280;55045;49.410;11.030;2023-04-03T01:20:22;98873.09;;;2.53;100.00
68226;BME280;55045;49.410;11.030;2023-04-03T01:23:48;98868.88;;;2.49;100.00
68226;BME280;55045;49.410;11.030;2023-04-03T01:26:56;98869.75;;;2.39;100.00
68226;BME280;55045;49.410;11.030;2023-04-03T01:29:59;98874.84;;;2.48;100.00
68226;BME280;55045;49.410;11.030;2023-04-03T01:33:05;98879.13;;;2.43;100.00
68226;BME280;55045;49.410;11.030;2023-04-03T01:36:10;98875.75;;;2.37;100.00
68226;BME280;55045;49.410;11.030;2023-04-03T01:39:16;98876.56;;;2.42;100.00
68226;BME280;55045;49.410;11.030;2023-04-03T01:42:19;98877.44;;;2.39;100.00
68226;BME280;55045;49.410;11.030;2023-04-03T01:45:22;98876.53;;;2.45;100.00
68226;BME280;55045;49.410;11.030;2023-04-03T01:48:27;98875.69;;;2.43;100.00
68226;BME280;55045;49.410;11.030;2023-04-03T01:51:30;98874.03;;;2.31;100.00
68226;BME280;55045;49.410;11.030;2023-04-03T01:54:35;98877.47;;;2.36;100.00
68226;BME280;55045;49.410;11.030;2023-04-03T01:57:38;98876.63;;;2.23;100.00
68226;BME280;55045;49.410;11.030;2023-04-03T02:00:42;98872.41;;;2.16;100.00
68226;BME280;55045;49.410;11.030;2023-04-03T02:03:46;98874.94;;;2.21;100.00
68226;BME280;55045;49.410;11.030;2023-04-03T02:06:50;98874.09;;;2.16;100.00
68226;BME280;55045;49.410;11.030;2023-04-03T02:09:53;98874.97;;;2.07;100.00
68226;BME280;55045;49.410;11.030;2023-04-03T02:12:57;98874.97;;;1.99;100.00
68226;BME280;55045;49.410;11.030;2023-04-03T02:16:06;98872.41;;;2.07;100.00
68226;BME280;55045;49.410;11.030;2023-04-03T02:19:11;98876.69;;;2.00;100.00
68226;BME280;55045;49.410;11.030;2023-04-03T02:22:14;98876.72;;;1.85;100.00
68226;BME280;55045;49.410;11.030;2023-04-03T02:25:17;98886.06;;;1.98;100.00
68226;BME280;55045;49.410;11.030;2023-04-03T02:28:21;98880.13;;;1.87;100.00
68226;BME280;55045;49.410;11.030;2023-04-03T02:31:24;98875.88;;;1.77;100.00
68226;BME280;55045;49.410;11.030;2023-04-03T02:34:29;98875.84;;;1.86;100.00
68226;BME280;55045;49.410;11.030;2023-04-03T02:37:34;98882.69;;;1.75;100.00
68226;BME280;55045;49.410;11.030;2023-04-03T02:40:38;98880.13;;;1.81;100.00
68226;BME280;55045;49.410;11.030;2023-04-03T02:43:41;98887.78;;;1.90;100.00
68226;BME280;55045;49.410;11.030;2023-04-03T02:46:44;98877.56;;;1.81;100.00
68226;BME280;55045;49.410;11.030;2023-04-03T02:49:49;98875.03;;;1.75;100.00
68226;BME280;55045;49.410;11.030;2023-04-03T02:52:54;98880.97;;;1.72;100.00
68226;BME280;55045;49.410;11.030;2023-04-03T02:55:58;98879.25;;;1.82;100.00
68226;BME280;55045;49.410;11.030;2023-04-03T02:59:01;98881.81;;;1.53;100.00
68226;BME280;55045;49.410;11.030;2023-04-03T03:02:05;98885.25;;;1.67;100.00
68226;BME280;55045;49.410;11.030;2023-04-03T03:05:10;98882.69;;;1.49;100.00
68226;BME280;55045;49.410;11.030;2023-04-03T03:08:13;98892.06;;;1.53;100.00
68226;BME280;55045;49.410;11.030;2023-04-03T03:11:17;98894.63;;;1.49;100.00
68226;BME280;55045;49.410;11.030;2023-04-03T03:14:20;98885.22;;;1.72;100.00
68226;BME280;55045;49.410;11.030;2023-04-03T03:17:23;98889.50;;;1.39;100.00
68226;BME280;55045;49.410;11.030;2023-04-03T03:20:27;98885.25;;;1.54;100.00
68226;BME280;55045;49.410;11.030;2023-04-03T03:23:33;98888.66;;;1.37;100.00
68226;BME280;55045;49.410;11.030;2023-04-03T03:26:36;98888.63;;;1.31;100.00
68226;BME280;55045;49.410;11.030;2023-04-03T03:29:40;98882.66;;;1.20;100.00
68226;BME280;55045;49.410;11.030;2023-04-03T03:35:04;98886.09;;;1.13;100.00
68226;BME280;55045;49.410;11.030;2023-04-03T03:38:07;98886.94;;;1.15;100.00
68226;BME280;55045;49.410;11.030;2023-04-03T03:41:10;98884.38;;;1.13;100.00
68226;BME280;55045;49.410;11.030;2023-04-03T03:44:16;98887.78;;;1.26;100.00
68226;BME280;55045;49.410;11.030;2023-04-03T03:47:19;98892.88;;;1.03;100.00
68226;BME280;55045;49.410;11.030;2023-04-03T03:50:24;98888.63;;;1.19;100.00
68226;BME280;55045;49.410;11.030;2023-04-03T03:53:28;98888.63;;;1.21;100.00
68226;BME280;55045;49.410;11.030;2023-04-03T03:56:35;98887.78;;;1.29;100.00
68226;BME280;55045;49.410;11.030;2023-04-03T03:59:39;98889.50;;;1.24;100.00
68226;BME280;55045;49.410;11.030;2023-04-03T04:02:44;98887.78;;;1.29;100.00
68226;BME280;55045;49.410;11.030;2023-04-03T04:05:52;98888.66;;;1.39;100.00
68226;BME280;55045;49.410;11.030;2023-04-03T04:08:57;98889.47;;;1.32;100.00
68226;BME280;55045;49.410;11.030;2023-04-03T04:12:00;98890.34;;;1.28;100.00
68226;BME280;55045;49.410;11.030;2023-04-03T04:15:07;98891.22;;;1.34;100.00
68226;BME280;55045;49.410;11.030;2023-04-03T04:18:10;98900.59;;;1.49;100.00
68226;BME280;55045;49.410;11.030;2023-04-03T04:21:18;98904.84;;;1.49;100.00
68226;BME280;55045;49.410;11.030;2023-04-03T04:24:22;98898.03;;;1.44;100.00
68226;BME280;55045;49.410;11.030;2023-04-03T04:27:28;98892.91;;;1.41;100.00
68226;BME280;55045;49.410;11.030;2023-04-03T04:30:31;98894.63;;;1.55;100.00
68226;BME280;55045;49.410;11.030;2023-04-03T04:33:35;98891.22;;;1.34;100.00
68226;BME280;55045;49.410;11.030;2023-04-03T04:36:41;98877.59;;;1.57;100.00
68226;BME280;55045;49.410;11.030;2023-04-03T04:39:45;98906.56;;;1.48;100.00
68226;BME280;55045;49.410;11.030;2023-04-03T04:42:48;98894.63;;;1.39;100.00
68226;BME280;55045;49.410;11.030;2023-04-03T04:46:00;98900.59;;;1.67;100.00
68226;BME280;55045;49.410;11.030;2023-04-03T04:49:05;98910.81;;;1.51;100.00
68226;BME280;55045;49.410;11.030;2023-04-03T04:52:10;98904.00;;;1.36;100.00
68226;BME280;55045;49.410;11.030;2023-04-03T04:55:15;98906.53;;;1.40;100.00
68226;BME280;55045;49.410;11.030;2023-04-03T04:58:18;98912.50;;;1.53;100.00
68226;BME280;55045;49.410;11.030;2023-04-03T05:01:22;98903.13;;;1.38;100.00
68226;BME280;55045;49.410;11.030;2023-04-03T05:04:37;98887.78;;;1.32;100.00
68226;BME280;55045;49.410;11.030;2023-04-03T05:07:48;98915.06;;;1.58;100.00
68226;BME280;55045;49.410;11.030;2023-04-03T05:10:52;98923.59;;;1.55;100.00
68226;BME280;55045;49.410;11.030;2023-04-03T05:13:58;98923.59;;;1.60;100.00
68226;BME280;55045;49.410;11.030;2023-04-03T05:17:03;98915.94;;;1.60;100.00
68226;BME280;55045;49.410;11.030;2023-04-03T05:20:10;98923.59;;;1.60;100.00
68226;BME280;55045;49.410;11.030;2023-04-03T05:23:16;98916.78;;;1.65;100.00
68226;BME280;55045;49.410;11.030;2023-04-03T05:26:21;98914.25;;;1.54;100.00
68226;BME280;55045;49.410;11.030;2023-04-03T05:29:25;98924.44;;;1.53;100.00
68226;BME280;55045;49.410;11.030;2023-04-03T05:32:29;98926.16;;;1.48;100.00
68226;BME280;55045;49.410;11.030;2023-04-03T05:35:46;98928.72;;;1.54;100.00
68226;BME280;55045;49.410;11.030;2023-04-03T05:38:55;98928.69;;;1.63;100.00
68226;BME280;55045;49.410;11.030;2023-04-03T05:42:00;98932.13;;;1.68;100.00
68226;BME280;55045;49.410;11.030;2023-04-03T05:45:05;98934.66;;;1.60;100.00
68226;BME280;55045;49.410;11.030;2023-04-03T05:48:09;98940.66;;;1.64;100.00
68226;BME280;55045;49.410;11.030;2023-04-03T05:51:15;98944.06;;;1.70;100.00
68226;BME280;55045;49.410;11.030;2023-04-03T05:54:23;98944.06;;;1.69;100.00
68226;BME280;55045;49.410;11.030;2023-04-03T05:57:32;98939.78;;;1.62;100.00
68226;BME280;55045;49.410;11.030;2023-04-03T06:00:35;98944.06;;;1.66;100.00
68226;BME280;55045;49.410;11.030;2023-04-03T06:03:39;98955.97;;;1.73;100.00
68226;BME280;55045;49.410;11.030;2023-04-03T06:06:46;98949.16;;;1.72;100.00
68226;BME280;55045;49.410;11.030;2023-04-03T06:09:51;98951.72;;;1.93;100.00
68226;BME280;55045;49.410;11.030;2023-04-03T06:12:54;98950.88;;;1.82;100.00
68226;BME280;55045;49.410;11.030;2023-04-03T06:15:58;98954.31;;;1.96;100.00
68226;BME280;55045;49.410;11.030;2023-04-03T06:19:01;98964.53;;;1.87;100.00
68226;BME280;55045;49.410;11.030;2023-04-03T06:22:05;98949.16;;;1.93;100.00
68226;BME280;55045;49.410;11.030;2023-04-03T06:25:09;98944.03;;;2.02;100.00
68226;BME280;55045;49.410;11.030;2023-04-03T06:28:13;98964.50;;;1.92;100.00
68226;BME280;55045;49.410;11.030;2023-04-03T06:31:16;98954.28;;;2.02;100.00
68226;BME280;55045;49.410;11.030;2023-04-03T06:34:19;98950.88;;;2.07;100.00
68226;BME280;55045;49.410;11.030;2023-04-03T06:37:23;98955.97;;;2.11;100.00
68226;BME280;55045;49.410;11.030;2023-04-03T06:40:29;98961.09;;;2.14;100.00
68226;BME280;55045;49.410;11.030;2023-04-03T06:43:32;98961.94;;;2.19;100.00
68226;BME280;55045;49.410;11.030;2023-04-03T06:46:36;98951.72;;;2.10;100.00
68226;BME280;55045;49.410;11.030;2023-04-03T06:49:40;98971.31;;;2.22;100.00
68226;BME280;55045;49.410;11.030;2023-04-03T06:52:45;98962.78;;;2.20;100.00
68226;BME280;55045;49.410;11.030;2023-04-03T06:55:49;98971.31;;;2.28;100.00
68226;BME280;55045;49.410;11.030;2023-04-03T06:58:53;98967.91;;;2.27;100.00
68226;BME280;55045;49.410;11.030;2023-04-03T07:01:56;98979.00;;;2.31;100.00
68226;BME280;55045;49.410;11.030;2023-04-03T07:05:00;98984.06;;;2.57;100.00
68226;BME280;55045;49.410;11.030;2023-04-03T07:08:04;98982.38;;;2.57;100.00
68226;BME280;55045;49.410;11.030;2023-04-03T07:11:10;98978.88;;;2.78;100.00
68226;BME280;55045;49.410;11.030;2023-04-03T07:14:13;98981.47;;;2.77;100.00
68226;BME280;55045;49.410;11.030;2023-04-03T07:17:17;98990.81;;;2.90;100.00
68226;BME280;55045;49.410;11.030;2023-04-03T07:20:20;98994.19;;;3.00;100.00
68226;BME280;55045;49.410;11.030;2023-04-03T07:23:24;98992.47;;;2.99;100.00
68226;BME280;55045;49.410;11.030;2023-04-03T07:26:28;99004.41;;;3.07;100.00
68226;BME280;55045;49.410;11.030;2023-04-03T07:29:32;99003.59;;;2.99;100.00
68226;BME280;55045;49.410;11.030;2023-04-03T07:32:35;98997.56;;;3.09;100.00
68226;BME280;55045;49.410;11.030;2023-04-03T07:35:39;99000.06;;;3.15;100.00
68226;BME280;55045;49.410;11.030;2023-04-03T07:38:43;99005.97;;;3.34;100.00
68226;BME280;55045;49.410;11.030;2023-04-03T07:41:48;99004.28;;;3.38;100.00
68226;BME280;55045;49.410;11.030;2023-04-03T07:44:51;98996.56;;;3.35;100.00
68226;BME280;55045;49.410;11.030;2023-04-03T07:47:54;99005.91;;;3.48;100.00
68226;BME280;55045;49.410;11.030;2023-04-03T07:50:59;99013.63;;;3.42;100.00
68226;BME280;55045;49.410;11.030;2023-04-03T07:54:03;99012.63;;;3.66;100.00
68226;BME280;55045;49.410;11.030;2023-04-03T07:57:08;99000.66;;;3.66;100.00
68226;BME280;55045;49.410;11.030;2023-04-03T08:00:12;99016.84;;;3.79;100.00
68226;BME280;55045;49.410;11.030;2023-04-03T08:03:16;99007.50;;;3.69;100.00
68226;BME280;55045;49.410;11.030;2023-04-03T08:06:19;98986.81;;;3.90;100.00
68226;BME280;55045;49.410;11.030;2023-04-03T08:09:38;99012.41;;;3.98;100.00
68226;BME280;55045;49.410;11.030;2023-04-03T08:12:45;99013.44;;;3.75;100.00
68226;BME280;55045;49.410;11.030;2023-04-03T08:15:48;99019.59;;;3.50;100.00
68226;BME280;55045;49.410;11.030;2023-04-03T08:18:53;99028.84;;;3.72;100.00
68226;BME280;55045;49.410;11.030;2023-04-03T08:21:56;99022.81;;;3.76;100.00
68226;BME280;55045;49.410;11.030;2023-04-03T08:25:00;99016.88;;;3.71;100.00
68226;BME280;55045;49.410;11.030;2023-04-03T08:28:05;99029.44;;;4.11;100.00
68226;BME280;55045;49.410;11.030;2023-04-03T08:31:11;99021.31;;;4.60;100.00
68226;BME280;55045;49.410;11.030;2023-04-03T08:34:14;99022.59;;;5.01;100.00
68226;BME280;55045;49.410;11.030;2023-04-03T08:37:17;99019.16;;;5.02;100.00
68226;BME280;55045;49.410;11.030;2023-04-03T08:40:21;99023.09;;;5.29;100.00
68226;BME280;55045;49.410;11.030;2023-04-03T08:43:31;99027.22;;;5.40;100.00
68226;BME280;55045;49.410;11.030;2023-04-03T08:46:49;99019.25;;;4.93;100.00
68226;BME280;55045;49.410;11.030;2023-04-03T08:49:59;99020.75;;;5.09;100.00
68226;BME280;55045;49.410;11.030;2023-04-03T08:53:03;99023.78;;;4.68;100.00
68226;BME280;55045;49.410;11.030;2023-04-03T08:56:09;99001.13;;;5.00;100.00
68226;BME280;55045;49.410;11.030;2023-04-03T08:59:17;99029.91;;;5.33;100.00
68226;BME280;55045;49.410;11.030;2023-04-03T09:02:28;99022.75;;;4.85;100.00
68226;BME280;55045;49.410;11.030;2023-04-03T09:05:40;99024.78;;;5.30;99.02
68226;BME280;55045;49.410;11.030;2023-04-03T09:08:50;99023.88;;;4.58;97.04
68226;BME280;55045;49.410;11.030;2023-04-03T09:12:00;99028.16;;;4.58;98.53
68226;BME280;55045;49.410;11.030;2023-04-03T09:15:18;99023.00;;;4.62;96.89
68226;BME280;55045;49.410;11.030;2023-04-03T09:18:44;99039.47;;;4.42;94.79
68226;BME280;55045;49.410;11.030;2023-04-03T09:21:51;99031.78;;;4.36;93.06
68226;BME280;55045;49.410;11.030;2023-04-03T09:24:57;99034.34;;;4.40;96.49
68226;BME280;55045;49.410;11.030;2023-04-03T09:28:03;99035.94;;;4.52;100.00
68226;BME280;55045;49.410;11.030;2023-04-03T09:35:15;99036.81;;;4.51;100.00
68226;BME280;55045;49.410;11.030;2023-04-03T09:38:31;99030.03;;;4.39;100.00
68226;BME280;55045;49.410;11.030;2023-04-03T09:41:35;99037.88;;;4.25;100.00
68226;BME280;55045;49.410;11.030;2023-04-03T09:44:54;99031.69;;;4.48;100.00
68226;BME280;55045;49.410;11.030;2023-04-03T09:48:06;99034.25;;;4.51;96.66
68226;BME280;55045;49.410;11.030;2023-04-03T09:51:25;99033.13;;;4.76;96.98
68226;BME280;55045;49.410;11.030;2023-04-03T09:54:49;99030.59;;;4.73;96.03
68226;BME280;55045;49.410;11.030;2023-04-03T09:57:53;99037.56;;;4.59;93.92
68226;BME280;55045;49.410;11.030;2023-04-03T10:00:57;99040.38;;;4.33;92.40
68226;BME280;55045;49.410;11.030;2023-04-03T10:04:09;99038.38;;;4.64;93.61
68226;BME280;55045;49.410;11.030;2023-04-03T10:07:29;99029.75;;;4.71;92.58
68226;BME280;55045;49.410;11.030;2023-04-03T10:11:10;99021.81;;;4.93;93.07
68226;BME280;55045;49.410;11.030;2023-04-03T10:14:17;99035.19;;;5.20;88.63
68226;BME280;55045;49.410;11.030;2023-04-03T10:17:28;99020.97;;;4.92;87.47
68226;BME280;55045;49.410;11.030;2023-04-03T10:20:36;99025.19;;;4.98;88.56
68226;BME280;55045;49.410;11.030;2023-04-03T10:23:45;99025.38;;;4.79;85.84
68226;BME280;55045;49.410;11.030;2023-04-03T10:26:56;99031.13;;;5.03;86.96
68226;BME280;55045;49.410;11.030;2023-04-03T10:30:14;99022.41;;;5.16;86.44
68226;BME280;55045;49.410;11.030;2023-04-03T10:33:28;99023.56;;;4.90;86.02
68226;BME280;55045;49.410;11.030;2023-04-03T10:36:38;99021.75;;;4.97;85.97
68226;BME280;55045;49.410;11.030;2023-04-03T10:40:15;99017.78;;;4.70;83.31
68226;BME280;55045;49.410;11.030;2023-04-03T10:43:31;99001.47;;;5.43;82.17
68226;BME280;55045;49.410;11.030;2023-04-03T10:46:38;99014.16;;;5.56;78.19
68226;BME280;55045;49.410;11.030;2023-04-03T10:49:50;99003.66;;;5.72;78.93
68226;BME280;55045;49.410;11.030;2023-04-03T10:53:05;99005.28;;;5.15;80.47
68226;BME280;55045;49.410;11.030;2023-04-03T10:56:18;99003.28;;;5.37;83.20
68226;BME280;55045;49.410;11.030;2023-04-03T10:59:36;98998.22;;;5.29;81.84
68226;BME280;55045;49.410;11.030;2023-04-03T11:02:45;99000.03;;;5.23;81.70
68226;BME280;55045;49.410;11.030;2023-04-03T11:05:53;98997.19;;;5.44;83.10
68226;BME280;55045;49.410;11.030;2023-04-03T11:09:02;98991.44;;;5.25;79.38
68226;BME280;55045;49.410;11.030;2023-04-03T11:12:15;98989.88;;;5.10;76.18
68226;BME280;55045;49.410;11.030;2023-04-03T11:15:40;98980.34;;;5.18;78.37
68226;BME280;55045;49.410;11.030;2023-04-03T11:18:48;98983.19;;;5.63;75.87
68226;BME280;55045;49.410;11.030;2023-04-03T11:21:54;98979.50;;;5.79;73.97
68226;BME280;55045;49.410;11.030;2023-04-03T11:25:04;98980.00;;;5.46;73.59
68226;BME280;55045;49.410;11.030;2023-04-03T11:28:13;98973.59;;;5.10;76.62
68226;BME280;55045;49.410;11.030;2023-04-03T11:31:31;98972.47;;;5.31;79.77
68226;BME280;55045;49.410;11.030;2023-04-03T11:34:38;98976.69;;;5.36;76.69
68226;BME280;55045;49.410;11.030;2023-04-03T11:37:46;98971.84;;;5.75;72.20
68226;BME280;55045;49.410;11.030;2023-04-03T11:40:51;98957.31;;;6.26;69.80
68226;BME280;55045;49.410;11.030;2023-04-03T11:44:00;98959.56;;;6.45;66.89
68226;BME280;55045;49.410;11.030;2023-04-03T11:47:04;98960.19;;;6.08;66.38
68226;BME280;55045;49.410;11.030;2023-04-03T11:50:31;98967.69;;;5.66;67.40
68226;BME280;55045;49.410;11.030;2023-04-03T11:53:35;98974.41;;;5.76;67.45
68226;BME280;55045;49.410;11.030;2023-04-03T11:56:40;98963.03;;;5.93;65.44
68226;BME280;55045;49.410;11.030;2023-04-03T11:59:45;98957.94;;;5.87;61.49
68226;BME280;55045;49.410;11.030;2023-04-03T12:02:50;98953.84;;;5.75;60.82
68226;BME280;55045;49.410;11.030;2023-04-03T12:05:57;98943.59;;;5.70;59.15
68226;BME280;55045;49.410;11.030;2023-04-03T12:09:00;98950.84;;;6.02;57.90
68226;BME280;55045;49.410;11.030;2023-04-03T12:12:24;98934.75;;;6.39;55.79
68226;BME280;55045;49.410;11.030;2023-04-03T12:15:52;98940.13;;;6.72;54.95
68226;BME280;55045;49.410;11.030;2023-04-03T12:19:30;98931.03;;;6.97;56.25
68226;BME280;55045;49.410;11.030;2023-04-03T12:23:07;98924.09;;;6.57;56.96
68226;BME280;55045;49.410;11.030;2023-04-03T12:26:21;98913.22;;;5.95;53.06
68226;BME280;55045;49.410;11.030;2023-04-03T12:29:36;98925.28;;;5.89;50.26
68226;BME280;55045;49.410;11.030;2023-04-03T12:33:18;98911.75;;;6.28;56.74
68226;BME280;55045;49.410;11.030;2023-04-03T12:36:28;98909.34;;;6.64;63.28
68226;BME280;55045;49.410;11.030;2023-04-03T12:39:49;98894.44;;;6.80;65.77
68226;BME280;55045;49.410;11.030;2023-04-03T12:43:05;98897.38;;;7.03;62.39
68226;BME280;55045;49.410;11.030;2023-04-03T12:46:14;98895.38;;;6.76;65.41
68226;BME280;55045;49.410;11.030;2023-04-03T12:49:37;98905.41;;;6.46;65.36
68226;BME280;55045;49.410;11.030;2023-04-03T12:52:44;98891.25;;;6.24;62.55
68226;BME280;55045;49.410;11.030;2023-04-03T12:55:53;98893.25;;;6.53;61.76
68226;BME280;55045;49.410;11.030;2023-04-03T12:59:14;98889.66;;;6.61;60.03
68226;BME280;55045;49.410;11.030;2023-04-03T13:02:23;98891.53;;;7.34;62.15
68226;BME280;55045;49.410;11.030;2023-04-03T13:05:29;98901.81;;;6.97;63.04
68226;BME280;55045;49.410;11.030;2023-04-03T13:08:36;98890.75;;;6.03;64.05
68226;BME280;55045;49.410;11.030;2023-04-03T13:11:41;98889.06;;;6.47;64.03
68226;BME280;55045;49.410;11.030;2023-04-03T13:14:52;98885.66;;;6.47;63.77
68226;BME280;55045;49.410;11.030;2023-04-03T13:17:56;98880.22;;;6.60;63.63
68226;BME280;55045;49.410;11.030;2023-04-03T13:21:04;98891.47;;;6.56;61.26
68226;BME280;55045;49.410;11.030;2023-04-03T13:24:08;98887.94;;;6.60;61.16
68226;BME280;55045;49.410;11.030;2023-04-03T13:27:17;98879.63;;;6.89;62.59
68226;BME280;55045;49.410;11.030;2023-04-03T13:30:24;98882.72;;;7.05;63.51
68226;BME280;55045;49.410;11.030;2023-04-03T13:33:30;98872.75;;;7.29;64.16
68226;BME280;55045;49.410;11.030;2023-04-03T13:36:38;98875.00;;;7.05;64.60
68226;BME280;55045;49.410;11.030;2023-04-03T13:39:42;98876.88;;;6.97;64.42
68226;BME280;55045;49.410;11.030;2023-04-03T13:42:59;98874.13;;;6.64;65.38
68226;BME280;55045;49.410;11.030;2023-04-03T13:46:20;98874.63;;;6.82;64.21
68226;BME280;55045;49.410;11.030;2023-04-03T13:49:31;98869.75;;;6.68;64.05
68226;BME280;55045;49.410;11.030;2023-04-03T13:52:41;98863.94;;;6.99;64.66
68226;BME280;55045;49.410;11.030;2023-04-03T13:55:58;98871.25;;;7.18;65.49
68226;BME280;55045;49.410;11.030;2023-04-03T13:59:21;98869.56;;;7.17;62.38
68226;BME280;55045;49.410;11.030;2023-04-03T14:02:31;98871.72;;;6.97;63.64
68226;BME280;55045;49.410;11.030;2023-04-03T14:05:36;98876.25;;;6.44;63.56
68226;BME280;55045;49.410;11.030;2023-04-03T14:08:42;98868.81;;;6.29;68.70
68226;BME280;55045;49.410;11.030;2023-04-03T14:11:46;98867.41;;;6.11;67.29
68226;BME280;55045;49.410;11.030;2023-04-03T14:14:50;98864.38;;;6.37;68.72
68226;BME280;55045;49.410;11.030;2023-04-03T14:17:54;98860.59;;;6.53;66.02
68226;BME280;55045;49.410;11.030;2023-04-03T14:20:57;98848.09;;;6.77;64.77
68226;BME280;55045;49.410;11.030;2023-04-03T14:24:02;98822.69;;;6.58;64.92
68226;BME280;55045;49.410;11.030;2023-04-03T14:27:14;98850.13;;;7.01;65.33
68226;BME280;55045;49.410;11.030;2023-04-03T14:30:22;98863.78;;;6.66;62.32
68226;BME280;55045;49.410;11.030;2023-04-03T14:33:26;98853.06;;;6.43;67.23
68226;BME280;55045;49.410;11.030;2023-04-03T14:36:33;98856.13;;;6.18;65.39
68226;BME280;55045;49.410;11.030;2023-04-03T14:39:38;98862.06;;;6.23;67.26
68226;BME280;55045;49.410;11.030;2023-04-03T14:42:41;98841.00;;;6.46;65.93
68226;BME280;55045;49.410;11.030;2023-04-03T14:45:44;98848.47;;;6.58;67.19
68226;BME280;55045;49.410;11.030;2023-04-03T14:48:48;98848.38;;;6.63;66.71
68226;BME280;55045;49.410;11.030;2023-04-03T14:51:51;98837.16;;;6.64;67.51
68226;BME280;55045;49.410;11.030;2023-04-03T14:54:58;98843.97;;;7.08;64.88
68226;BME280;55045;49.410;11.030;2023-04-03T14:58:02;98840.09;;;6.89;62.99
68226;BME280;55045;49.410;11.030;2023-04-03T15:01:09;98830.31;;;6.64;63.50
68226;BME280;55045;49.410;11.030;2023-04-03T15:04:14;98841.25;;;6.34;68.43
68226;BME280;55045;49.410;11.030;2023-04-03T15:07:18;98849.25;;;6.19;65.52
68226;BME280;55045;49.410;11.030;2023-04-03T15:10:25;98830.94;;;6.34;65.42
68226;BME280;55045;49.410;11.030;2023-04-03T15:13:29;98846.00;;;6.52;65.66
68226;BME280;55045;49.410;11.030;2023-04-03T15:16:32;98836.66;;;6.48;63.78
68226;BME280;55045;49.410;11.030;2023-04-03T15:19:38;98847.22;;;6.78;62.08
68226;BME280;55045;49.410;11.030;2023-04-03T15:22:42;98846.41;;;6.76;61.79
68226;BME280;55045;49.410;11.030;2023-04-03T15:25:49;98847.69;;;6.55;60.14
68226;BME280;55045;49.410;11.030;2023-04-03T15:28:52;98856.63;;;6.37;61.33
68226;BME280;55045;49.410;11.030;2023-04-03T15:35:04;98843.94;;;5.78;65.31
68226;BME280;55045;49.410;11.030;2023-04-03T15:38:09;98845.66;;;5.78;67.83
68226;BME280;55045;49.410;11.030;2023-04-03T15:41:13;98851.94;;;5.63;66.81
68226;BME280;55045;49.410;11.030;2023-04-03T15:44:17;98858.69;;;5.69;69.32
68226;BME280;55045;49.410;11.030;2023-04-03T15:47:21;98855.31;;;5.67;67.17
68226;BME280;55045;49.410;11.030;2023-04-03T15:50:26;98851.47;;;5.89;67.16
68226;BME280;55045;49.410;11.030;2023-04-03T15:53:29;98853.97;;;5.97;66.71
68226;BME280;55045;49.410;11.030;2023-04-03T15:56:32;98860.94;;;5.89;65.43
68226;BME280;55045;49.410;11.030;2023-04-03T15:59:36;98857.66;;;5.79;65.74
68226;BME280;55045;49.410;11.030;2023-04-03T16:02:39;98870.16;;;5.49;65.10
68226;BME280;55045;49.410;11.030;2023-04-03T16:05:46;98860.53;;;5.61;67.30
68226;BME280;55045;49.410;11.030;2023-04-03T16:08:50;98859.66;;;5.63;66.96
68226;BME280;55045;49.410;11.030;2023-04-03T16:11:54;98876.81;;;5.64;66.93
68226;BME280;55045;49.410;11.030;2023-04-03T16:14:58;98870.13;;;5.53;69.04
68226;BME280;55045;49.410;11.030;2023-04-03T16:18:01;98873.63;;;5.47;68.52
68226;BME280;55045;49.410;11.030;2023-04-03T16:21:08;98864.97;;;5.54;70.64
68226;BME280;55045;49.410;11.030;2023-04-03T16:24:11;98869.59;;;5.32;68.26
68226;BME280;55045;49.410;11.030;2023-04-03T16:27:20;98885.00;;;5.34;68.78
68226;BME280;55045;49.410;11.030;2023-04-03T16:30:23;98871.09;;;5.45;70.73
68226;BME280;55045;49.410;11.030;2023-04-03T16:33:27;98876.63;;;5.18;71.53
68226;BME280;55045;49.410;11.030;2023-04-03T16:36:32;98882.00;;;5.04;69.64